Time;durP1;ratioP1;P1;durP2;ratioP2;P2;SDS_P1;SDS_P2;PMS_P1;PMS_P2;Temp;Humidity;BMP_temperature;BMP_pressure;BME280_temperature;BME280_humidity;BME280_pressure;Samples;Min_cycle;Max_cycle;Signal;HPM_P1;HPM_P2
2023/05/28 00:00:20;;;;;;;8.75;6.55;;;;;;;17.84;100.00;100110.38;4895571;29;20031;-72
2023/05/28 00:02:45;;;;;;;9.80;5.72;;;;;;;17.01;100.00;99975.41;4895593;29;20485;-72
2023/05/28 00:05:11;;;;;;;9.02;6.00;;;;;;;17.48;100.00;100051.16;4895170;29;20031;-72
2023/05/28 00:07:36;;;;;;;10.57;6.15;;;;;;;17.75;100.00;100110.38;4895281;29;20118;-72
2023/05/28 00:10:02;;;;;;;10.05;6.63;;;;;;;17.65;100.00;100099.03;4895735;29;20036;-72
2023/05/28 00:12:28;;;;;;;13.70;6.20;;;;;;;17.64;100.00;100107.72;4895354;29;20020;-72
2023/05/28 00:14:53;;;;;;;9.65;6.05;;;;;;;17.56;100.00;100099.03;4895270;29;20052;-72
2023/05/28 00:17:21;;;;;;;8.68;6.28;;;;;;;17.60;100.00;100109.47;4895694;29;20021;-75
2023/05/28 00:19:46;;;;;;;8.95;5.85;;;;;;;17.52;100.00;100081.59;4895383;29;20144;-71
2023/05/28 00:22:12;;;;;;;8.50;5.35;;;;;;;17.60;100.00;100098.16;4895402;29;20473;-71
2023/05/28 00:24:37;;;;;;;8.50;5.47;;;;;;;17.14;100.00;100020.63;4895109;29;20052;-71
2023/05/28 00:27:03;;;;;;;9.23;6.13;;;;;;;17.27;100.00;100032.84;4895117;29;20100;-71
2023/05/28 00:29:29;;;;;;;9.15;6.25;;;;;;;17.64;100.00;100099.91;4894809;29;20072;-71
2023/05/28 00:31:57;;;;;;;10.05;5.10;;;;;;;17.27;100.00;100035.44;4878528;29;20080;-71
2023/05/28 00:34:23;;;;;;;9.77;5.57;;;;;;;17.62;100.00;100091.22;4895300;29;20384;-72
2023/05/28 00:36:48;;;;;;;9.82;6.15;;;;;;;17.67;100.00;100091.19;4895494;29;20052;-72
2023/05/28 00:39:15;;;;;;;9.65;5.20;;;;;;;17.56;100.00;100065.94;4894950;29;20040;-72
2023/05/28 00:41:40;;;;;;;8.32;6.13;;;;;;;17.69;100.00;100085.09;4894576;29;20064;-72
2023/05/28 00:44:08;;;;;;;10.32;6.05;;;;;;;17.50;100.00;100067.69;4895016;29;20078;-71
2023/05/28 00:46:35;;;;;;;9.30;5.90;;;;;;;17.63;100.00;100083.38;4895227;29;20029;-71
2023/05/28 00:49:01;;;;;;;10.38;5.57;;;;;;;17.12;100.00;100006.69;4877057;29;20128;-71
2023/05/28 00:51:26;;;;;;;9.25;5.78;;;;;;;17.54;100.00;100079.88;4894981;29;20515;-71
2023/05/28 00:53:53;;;;;;;10.10;5.95;;;;;;;17.25;100.00;100031.09;4895258;29;20039;-71
2023/05/28 00:56:18;;;;;;;11.45;6.50;;;;;;;17.53;100.00;100083.34;4894070;29;20060;-70
2023/05/28 00:58:48;;;;;;;8.05;5.90;;;;;;;17.04;100.00;100000.63;4894938;29;20060;-71
2023/05/28 01:01:13;;;;;;;10.82;6.57;;;;;;;17.54;100.00;100083.34;4894729;29;20107;-71
2023/05/28 01:03:39;;;;;;;8.95;6.10;;;;;;;17.54;100.00;100082.47;4896083;29;20116;-71
2023/05/28 01:06:12;;;;;;;12.02;6.55;;;;;;;17.52;100.00;100090.31;4898647;29;20044;-71
2023/05/28 01:08:38;;;;;;;10.85;5.82;;;;;;;17.61;100.00;100092.06;4898227;29;20039;-70
2023/05/28 01:11:11;;;;;;;9.05;5.88;;;;;;;17.51;100.00;100069.41;4898643;29;20581;-70
2023/05/28 01:13:38;;;;;;;8.82;5.40;;;;;;;17.59;100.00;100097.25;4898580;29;20028;-70
2023/05/28 01:16:04;;;;;;;8.18;5.60;;;;;;;17.58;100.00;100097.28;4898508;29;20462;-72
2023/05/28 01:18:31;;;;;;;8.65;5.65;;;;;;;17.55;100.00;100089.44;4898599;29;20103;-71
2023/05/28 01:21:00;;;;;;;7.28;5.40;;;;;;;17.48;100.00;100079.84;4898227;29;20096;-71
2023/05/28 01:23:28;;;;;;;7.93;6.03;;;;;;;17.50;100.00;100085.97;4898454;29;20052;-72
2023/05/28 01:25:55;;;;;;;10.10;5.93;;;;;;;17.47;100.00;100097.25;4898477;29;20369;-72
2023/05/28 01:28:21;;;;;;;8.38;5.57;;;;;;;17.38;100.00;100086.78;4897885;29;20040;-71
2023/05/28 01:30:47;;;;;;;9.50;6.10;;;;;;;17.38;100.00;100097.22;4897637;29;20056;-72
2023/05/28 01:33:13;;;;;;;10.93;6.43;;;;;;;17.08;100.00;100031.03;4898216;29;20036;-73
2023/05/28 01:35:42;;;;;;;10.77;5.82;;;;;;;17.45;100.00;100112.91;4897954;29;20029;-71
2023/05/28 01:38:11;;;;;;;9.65;6.07;;;;;;;17.48;100.00;100111.16;4898217;29;20024;-71
2023/05/28 01:40:43;;;;;;;10.00;6.50;;;;;;;17.49;100.00;100105.09;4898079;29;20044;-72
2023/05/28 01:43:09;;;;;;;9.75;6.78;;;;;;;17.53;100.00;100104.22;4898056;29;20024;-72
2023/05/28 01:45:35;;;;;;;10.48;6.97;;;;;;;17.49;100.00;100107.69;4864674;29;20401;-70
2023/05/28 01:48:01;;;;;;;9.23;6.53;;;;;;;17.55;100.00;100111.19;4897883;29;20080;-73
2023/05/28 01:50:28;;;;;;;9.77;6.78;;;;;;;17.48;100.00;100114.63;4897696;29;20025;-71
2023/05/28 01:52:54;;;;;;;15.55;8.10;;;;;;;17.32;100.00;100097.19;4896206;29;20045;-71
2023/05/28 01:55:19;;;;;;;15.30;7.75;;;;;;;16.80;100.00;100023.94;4897638;29;20037;-72
2023/05/28 01:57:45;;;;;;;15.73;7.35;;;;;;;17.23;100.00;100114.56;4898016;29;20055;-71
2023/05/28 02:00:11;;;;;;;13.63;8.48;;;;;;;17.15;100.00;100118.88;4897630;29;20020;-71
2023/05/28 02:02:37;;;;;;;15.77;8.65;;;;;;;16.55;100.00;100022.97;4895371;29;20502;-73
2023/05/28 02:05:03;;;;;;;13.10;8.18;;;;;;;16.98;100.00;100114.47;4889232;29;20040;-71
2023/05/28 02:07:29;;;;;;;15.68;8.43;;;;;;;16.98;100.00;100117.06;4896948;29;20041;-71
2023/05/28 02:09:55;;;;;;;11.38;8.05;;;;;;;16.76;100.00;100100.41;4896502;29;20061;-71
2023/05/28 02:12:20;;;;;;;11.27;8.23;;;;;;;16.37;100.00;100039.34;4897537;29;20483;-69
2023/05/28 02:14:47;;;;;;;12.07;7.75;;;;;;;16.75;100.00;100098.66;4896504;29;20032;-70
2023/05/28 02:17:13;;;;;;;11.93;7.80;;;;;;;16.77;100.00;100111.69;4897036;29;20033;-70
2023/05/28 02:19:38;;;;;;;11.32;7.47;;;;;;;16.72;100.00;100116.00;4864004;29;20044;-69
2023/05/28 02:22:11;;;;;;;9.95;6.60;;;;;;;16.63;100.00;100104.66;4896905;29;20123;-69
2023/05/28 02:24:37;;;;;;;8.38;6.95;;;;;;;16.61;100.00;100118.53;4897317;29;20028;-70
2023/05/28 02:27:03;;;;;;;11.32;7.57;;;;;;;16.47;100.00;100095.00;4897030;29;20043;-70
2023/05/28 02:29:29;;;;;;;10.30;6.85;;;;;;;16.52;100.00;100102.88;4880114;29;20123;-70
2023/05/28 02:31:54;;;;;;;13.30;6.78;;;;;;;16.57;100.00;100104.63;4896233;29;20567;-70
2023/05/28 02:34:20;;;;;;;9.02;6.40;;;;;;;16.56;100.00;100118.53;4895949;29;20039;-71
2023/05/28 02:36:45;;;;;;;9.00;6.55;;;;;;;16.14;100.00;100027.06;4897011;29;20040;-71
2023/05/28 02:39:11;;;;;;;7.85;6.05;;;;;;;16.65;100.00;100108.16;4896717;29;20029;-70
2023/05/28 02:41:36;;;;;;;13.40;6.05;;;;;;;16.14;100.00;100024.44;4897167;29;20068;-71
2023/05/28 02:44:01;;;;;;;9.38;5.63;;;;;;;16.39;100.00;100074.13;4896951;29;20028;-74
2023/05/28 02:46:27;;;;;;;9.65;6.20;;;;;;;16.48;100.00;100089.78;4896560;29;20142;-71
2023/05/28 02:48:52;;;;;;;10.70;6.03;;;;;;;16.60;100.00;100115.09;4896455;29;20035;-71
2023/05/28 02:51:18;;;;;;;10.77;6.28;;;;;;;16.57;100.00;100115.03;4896824;29;20037;-70
2023/05/28 02:53:43;;;;;;;8.02;6.20;;;;;;;16.56;100.00;100113.31;4896884;29;20025;-72
2023/05/28 02:56:09;;;;;;;11.52;5.40;;;;;;;16.58;100.00;100115.94;4896711;29;20400;-72
2023/05/28 02:58:36;;;;;;;6.93;5.28;;;;;;;16.59;100.00;100107.25;4879814;29;20420;-78
2023/05/28 03:01:02;;;;;;;10.63;5.47;;;;;;;16.62;100.00;100110.75;4896672;29;20033;-72
2023/05/28 03:03:27;;;;;;;12.20;6.25;;;;;;;16.69;100.00;100111.66;4896053;29;20032;-72
2023/05/28 03:05:53;;;;;;;10.45;5.57;;;;;;;16.36;100.00;100042.81;4896547;29;20486;-72
2023/05/28 03:08:18;;;;;;;8.73;5.35;;;;;;;16.74;100.00;100103.88;4896109;29;20028;-71
2023/05/28 03:10:43;;;;;;;8.52;5.55;;;;;;;16.85;100.00;100120.44;4896385;29;20054;-71
2023/05/28 03:13:09;;;;;;;8.93;5.57;;;;;;;16.74;100.00;100101.28;4896189;29;20024;-70
2023/05/28 03:15:35;;;;;;;8.68;5.63;;;;;;;16.75;100.00;100106.47;4896235;29;20036;-71
2023/05/28 03:18:01;;;;;;;8.68;5.20;;;;;;;16.59;100.00;100078.59;4896212;29;20024;-70
2023/05/28 03:20:26;;;;;;;10.77;5.55;;;;;;;16.48;100.00;100063.75;4895970;29;20037;-71
2023/05/28 03:22:56;;;;;;;7.75;5.82;;;;;;;16.77;100.00;100107.38;4896263;29;20088;-71
2023/05/28 03:25:23;;;;;;;10.13;5.75;;;;;;;16.89;100.00;100116.13;4896264;29;20032;-72
2023/05/28 03:27:48;;;;;;;6.97;5.50;;;;;;;16.87;100.00;100117.84;4895404;29;20399;-70
2023/05/28 03:30:14;;;;;;;10.27;5.47;;;;;;;16.80;100.00;100123.03;4895863;29;20063;-71
2023/05/28 03:32:40;;;;;;;9.07;5.85;;;;;;;16.36;100.00;100036.75;4896008;29;20041;-71
2023/05/28 03:35:08;;;;;;;8.43;5.30;;;;;;;15.85;100.00;99967.00;4895745;29;20043;-75
2023/05/28 03:37:34;;;;;;;7.00;5.20;;;;;;;16.85;100.00;100115.22;4895285;29;20859;-72
2023/05/28 03:40:00;;;;;;;7.97;5.95;;;;;;;16.86;100.00;100123.91;4895816;29;20037;-71
2023/05/28 03:42:25;;;;;;;7.82;5.22;;;;;;;16.87;100.00;100118.69;4895751;29;20032;-72
2023/05/28 03:44:50;;;;;;;7.68;5.30;;;;;;;16.80;100.00;100096.94;4895709;29;20116;-72
2023/05/28 03:47:16;;;;;;;7.25;5.25;;;;;;;16.48;100.00;100042.03;4895577;29;20490;-72
2023/05/28 03:49:41;;;;;;;7.20;5.63;;;;;;;16.97;100.00;100120.53;4878996;29;20029;-72
2023/05/28 03:52:09;;;;;;;6.20;4.82;;;;;;;16.98;100.00;100122.28;4859607;29;20187;-71
2023/05/28 03:54:34;;;;;;;6.32;4.70;;;;;;;17.02;100.00;100122.28;4895697;29;20171;-71
2023/05/28 03:57:00;;;;;;;6.70;5.03;;;;;;;17.12;100.00;100130.19;4887564;29;20119;-72
2023/05/28 03:59:25;;;;;;;7.90;5.40;;;;;;;16.78;100.00;100053.50;4877091;29;20033;-71
2023/05/28 04:01:51;;;;;;;8.60;5.40;;;;;;;17.27;100.00;100123.28;4883982;29;20416;-72
2023/05/28 04:04:17;;;;;;;9.38;4.75;;;;;;;17.11;100.00;100118.00;4893103;29;20040;-77
2023/05/28 04:06:43;;;;;;;8.25;4.50;;;;;;;17.24;100.00;100139.78;4894549;29;20036;-74
2023/05/28 04:09:08;;;;;;;5.78;4.57;;;;;;;17.28;100.00;100141.56;4895357;29;20146;-72
2023/05/28 04:11:36;;;;;;;6.93;5.32;;;;;;;17.15;100.00;100111.06;4894391;29;20040;-70
2023/05/28 04:14:02;;;;;;;7.38;4.95;;;;;;;17.27;100.00;100128.47;4895492;29;20051;-71
2023/05/28 04:16:28;;;;;;;6.32;4.63;;;;;;;17.42;100.00;100145.94;4894917;29;20028;-71
2023/05/28 04:18:53;;;;;;;6.72;5.15;;;;;;;17.43;100.00;100139.84;4861420;29;20104;-72
2023/05/28 04:21:20;;;;;;;5.93;5.05;;;;;;;17.51;100.00;100143.38;4895337;29;20028;-72
2023/05/28 04:23:46;;;;;;;7.47;4.55;;;;;;;17.43;100.00;100116.38;4895481;29;20040;-72
2023/05/28 04:26:12;;;;;;;7.00;4.90;;;;;;;17.57;100.00;100147.72;4895300;29;20111;-71
2023/05/28 04:28:38;;;;;;;6.57;4.57;;;;;;;17.65;100.00;100155.59;4895464;29;20111;-72
2023/05/28 04:31:04;;;;;;;7.13;4.55;;;;;;;17.58;100.00;100139.03;4895654;29;20055;-73
2023/05/28 04:33:30;;;;;;;7.03;4.80;;;;;;;17.67;100.00;100143.41;4895417;29;20037;-73
2023/05/28 04:35:58;;;;;;;7.28;4.80;;;;;;;17.69;100.00;100150.38;4893823;29;20029;-73
2023/05/28 04:38:24;;;;;;;6.07;4.68;;;;;;;17.57;100.00;100153.84;4881808;29;20110;-71
2023/05/28 04:40:50;;;;;;;8.20;4.90;;;;;;;17.52;100.00;100157.28;4898940;29;20575;-71
2023/05/28 04:43:16;;;;;;;7.00;4.85;;;;;;;17.07;100.00;100073.63;4885227;29;20029;-71
2023/05/28 04:45:43;;;;;;;5.40;4.57;;;;;;;17.65;100.00;100166.91;4879105;29;20055;-70
2023/05/28 04:48:08;;;;;;;7.38;4.57;;;;;;;17.66;100.00;100171.25;4880343;29;20025;-73
2023/05/28 04:50:35;;;;;;;6.35;4.85;;;;;;;17.50;100.00;100144.22;4891966;29;20039;-70
2023/05/28 04:53:01;;;;;;;6.90;4.57;;;;;;;17.70;100.00;100164.31;4898694;29;20032;-73
2023/05/28 04:55:27;;;;;;;7.95;4.68;;;;;;;17.75;100.00;100165.19;4898567;29;20017;-71
2023/05/28 04:57:52;;;;;;;8.48;5.38;;;;;;;17.53;100.00;100157.28;4898410;29;20040;-70
2023/05/28 05:00:18;;;;;;;5.70;4.32;;;;;;;17.54;100.00;100158.16;4898535;29;20092;-71
2023/05/28 05:02:44;;;;;;;6.53;4.45;;;;;;;17.48;100.00;100158.16;4898117;29;20823;-73
2023/05/28 05:05:11;;;;;;;6.00;4.30;;;;;;;17.54;100.00;100172.09;4897534;29;20037;-71
2023/05/28 05:07:37;;;;;;;6.03;4.13;;;;;;;17.53;100.00;100175.56;4898121;29;20419;-70
2023/05/28 05:10:12;;;;;;;6.13;4.72;;;;;;;17.51;100.00;100164.25;4897715;29;20463;-74
2023/05/28 05:12:38;;;;;;;7.40;4.93;;;;;;;17.60;100.00;100164.28;4898285;29;20108;-71
2023/05/28 05:15:05;;;;;;;5.47;4.38;;;;;;;17.64;100.00;100167.75;4898261;29;20547;-70
2023/05/28 05:17:31;;;;;;;5.38;3.83;;;;;;;17.54;100.00;100161.63;4897332;29;20511;-72
2023/05/28 05:19:57;;;;;;;6.30;4.15;;;;;;;17.17;100.00;100084.97;4895820;29;20034;-70
2023/05/28 05:22:22;;;;;;;6.55;4.10;;;;;;;17.51;100.00;100148.59;4895946;29;20017;-70
2023/05/28 05:24:48;;;;;;;5.40;4.40;;;;;;;17.52;100.00;100136.41;4894106;29;20047;-70
2023/05/28 05:27:13;;;;;;;6.35;4.22;;;;;;;17.70;100.00;100156.47;4894689;29;20040;-71
2023/05/28 05:29:39;;;;;;;8.40;4.13;;;;;;;16.88;100.00;100018.75;4897746;29;20436;-70
2023/05/28 05:32:05;;;;;;;7.00;4.18;;;;;;;17.60;100.00;100159.06;4896567;29;20042;-69
2023/05/28 05:34:30;;;;;;;10.75;4.53;;;;;;;17.67;100.00;100161.69;4897274;29;20033;-70
2023/05/28 05:36:58;;;;;;;5.47;4.03;;;;;;;17.70;100.00;100167.78;4897909;29;20455;-70
2023/05/28 05:39:23;;;;;;;6.57;4.20;;;;;;;17.72;100.00;100165.16;4898148;29;20048;-72
2023/05/28 05:41:49;;;;;;;5.63;4.38;;;;;;;17.33;100.00;100109.38;4897945;29;20483;-71
2023/05/28 05:44:14;;;;;;;7.00;4.80;;;;;;;17.72;100.00;100170.41;4898132;29;20032;-71
2023/05/28 05:46:40;;;;;;;7.22;4.80;;;;;;;17.82;100.00;100172.19;4898311;29;20032;-70
2023/05/28 05:49:05;;;;;;;6.35;4.97;;;;;;;17.52;100.00;100112.91;4897942;29;20480;-71
2023/05/28 05:51:32;;;;;;;7.50;5.00;;;;;;;17.93;100.00;100161.75;4897670;29;20479;-70
2023/05/28 05:53:57;;;;;;;9.52;5.05;;;;;;;17.94;100.00;100174.84;4892282;29;20045;-72
2023/05/28 05:56:23;;;;;;;8.60;5.15;;;;;;;18.06;100.00;100168.75;4897675;29;20487;-74
2023/05/28 05:58:48;;;;;;;6.95;4.82;;;;;;;17.79;100.00;100117.31;4895660;29;20063;-71
2023/05/28 06:01:17;;;;;;;7.55;5.28;;;;;;;18.21;100.00;100177.50;4897248;29;20476;-71
2023/05/28 06:03:42;;;;;;;8.57;5.40;;;;;;;17.96;100.00;100133.06;4897885;29;20021;-73
2023/05/28 06:06:08;;;;;;;7.30;5.07;;;;;;;18.24;100.00;100186.22;4897722;29;20032;-71
2023/05/28 06:08:35;;;;;;;7.28;5.30;;;;;;;18.39;100.00;100187.06;4897121;29;20547;-70
2023/05/28 06:11:00;;;;;;;9.07;5.50;;;;;;;18.14;100.00;100121.75;4897836;29;20036;-70
2023/05/28 06:13:26;;;;;;;8.45;5.25;;;;;;;18.56;100.00;100182.72;4897497;29;20035;-73
2023/05/28 06:15:51;;;;;;;8.98;5.15;;;;;;;18.56;100.00;100177.50;4879513;29;20416;-70
2023/05/28 06:18:17;;;;;;;9.65;5.47;;;;;;;18.22;100.00;100112.16;4880643;29;20044;-70
2023/05/28 06:20:42;;;;;;;7.13;5.63;;;;;;;18.57;100.00;100176.63;4880503;29;20604;-71
2023/05/28 06:23:08;;;;;;;8.32;5.10;;;;;;;18.69;100.00;100174.88;4897238;29;20039;-71
2023/05/28 06:25:35;;;;;;;10.63;5.68;;;;;;;18.71;100.00;100176.59;4897320;29;20027;-70
2023/05/28 06:28:01;;;;;;;8.48;6.10;;;;;;;18.66;100.00;100174.88;4897234;29;20037;-72
2023/05/28 06:30:26;;;;;;;9.30;5.88;;;;;;;18.71;100.00;100181.84;4897214;29;20546;-70
2023/05/28 06:32:52;;;;;;;8.70;6.22;;;;;;;18.04;100.00;100054.69;4897263;29;20043;-75
2023/05/28 06:35:21;;;;;;;10.50;6.00;;;;;;;18.36;100.00;100112.16;4897137;29;20503;-71
2023/05/28 06:37:46;;;;;;;9.25;5.85;;;;;;;18.83;100.00;100180.06;4896760;29;20119;-75
2023/05/28 06:40:12;;;;;;;8.90;5.75;;;;;;;18.45;100.00;100118.25;4896778;29;20104;-69
2023/05/28 06:42:38;;;;;;;12.32;6.63;;;;;;;18.46;100.00;100114.78;4897035;29;20035;-70
2023/05/28 06:45:04;;;;;;;8.75;5.63;;;;;;;18.86;100.00;100178.31;4896903;29;20140;-71
2023/05/28 06:47:29;;;;;;;10.95;5.63;;;;;;;18.85;100.00;100181.81;4896743;29;20189;-73
2023/05/28 06:49:55;;;;;;;9.80;5.95;;;;;;;18.78;100.00;100177.47;4896943;29;20553;-71
2023/05/28 06:52:21;;;;;;;10.07;6.57;;;;;;;18.81;100.00;100195.78;4863394;29;20411;-70
2023/05/28 06:54:47;;;;;;;8.30;6.07;;;;;;;18.83;100.00;100194.03;4896343;29;20566;-71
2023/05/28 06:57:12;;;;;;;8.48;5.53;;;;;;;18.90;100.00;100187.97;4896946;29;20033;-70
2023/05/28 06:59:37;;;;;;;9.13;5.60;;;;;;;18.81;100.00;100172.22;4896180;29;20028;-71
2023/05/28 07:02:03;;;;;;;8.25;5.82;;;;;;;18.50;100.00;100117.38;4896195;29;20028;-71
2023/05/28 07:04:28;;;;;;;7.90;5.55;;;;;;;18.59;100.00;100140.91;4896933;29;20028;-71
2023/05/28 07:06:54;;;;;;;9.45;6.32;;;;;;;18.81;100.00;100169.63;4895986;29;20037;-72
2023/05/28 07:09:19;;;;;;;9.82;5.70;;;;;;;18.71;100.00;100154.81;4896637;29;20059;-72
2023/05/28 07:11:45;;;;;;;9.65;6.53;;;;;;;18.77;100.00;100170.50;4896446;29;20108;-70
2023/05/28 07:14:11;;;;;;;9.95;5.88;;;;;;;18.88;100.00;100176.59;4896505;29;20024;-72
2023/05/28 07:16:36;;;;;;;9.73;6.47;;;;;;;18.84;100.00;100158.28;4896120;29;20463;-71
2023/05/28 07:19:02;;;;;;;8.10;6.20;;;;;;;19.00;100.00;100177.47;4896589;29;20029;-71
2023/05/28 07:21:27;;;;;;;8.55;6.47;;;;;;;18.88;100.00;100175.72;4847238;29;20048;-70
2023/05/28 07:23:53;;;;;;;9.57;6.07;;;;;;;18.94;100.00;100173.13;4896389;29;20029;-70
2023/05/28 07:26:18;;;;;;;9.23;5.95;;;;;;;19.03;100.00;100180.09;4896115;29;20372;-70
2023/05/28 07:28:44;;;;;;;8.38;6.20;;;;;;;18.67;100.00;100117.34;4896145;29;20029;-70
2023/05/28 07:31:09;;;;;;;10.15;6.40;;;;;;;19.00;100.00;100174.84;4895628;29;20041;-75
2023/05/28 07:33:35;;;;;;;9.85;6.57;;;;;;;19.03;100.00;100160.00;4896242;29;20460;-71
2023/05/28 07:36:01;;;;;;;10.80;7.30;;;;;;;19.20;100.00;100167.81;4896310;29;20043;-72
2023/05/28 07:38:26;;;;;;;11.13;7.28;;;;;;;19.32;100.00;100173.88;4895868;29;20033;-74
2023/05/28 07:40:52;;;;;;;13.68;7.03;;;;;;;19.36;100.00;100173.84;4895647;29;20024;-69
2023/05/28 07:43:17;;;;;;;11.30;6.82;;;;;;;19.45;100.00;100159.00;4896130;29;20025;-75
2023/05/28 07:45:43;;;;;;;10.55;6.63;;;;;;;19.60;100.00;100172.03;4896003;29;20124;-70
2023/05/28 07:48:08;;;;;;;11.85;7.32;;;;;;;19.52;100.00;100147.63;4895914;29;20079;-71
2023/05/28 07:50:34;;;;;;;13.65;6.68;;;;;;;19.67;100.00;100162.38;4895339;29;20033;-69
2023/05/28 07:53:01;;;;;;;16.33;6.75;;;;;;;19.69;100.00;100160.63;4895769;29;20029;-70
2023/05/28 07:55:27;;;;;;;8.98;6.55;;;;;;;19.67;100.00;100165.84;4892623;29;20048;-71
2023/05/28 07:57:52;;;;;;;14.60;7.70;;;;;;;19.47;100.00;100141.53;4895577;29;20391;-70
2023/05/28 08:00:18;;;;;;;14.07;7.18;;;;;;;19.52;100.00;100155.47;4895629;29;20033;-71
2023/05/28 08:02:44;;;;;;;14.50;7.95;;;;;;;19.49;100.00;100155.47;4896091;29;20126;-69
2023/05/28 08:05:10;;;;;;;14.05;7.22;;;;;;;19.55;100.00;100169.41;4895488;29;20142;-72
2023/05/28 08:07:35;;;;;;;14.15;7.55;;;;;;;19.64;100.00;100163.25;4895302;29;20107;-71
2023/05/28 08:10:01;;;;;;;14.55;7.72;;;;;;;19.66;100.00;100165.88;4895453;29;20624;-69
2023/05/28 08:12:27;;;;;;;16.17;8.13;;;;;;;19.56;100.00;100150.22;4894913;29;20461;-70
2023/05/28 08:14:52;;;;;;;9.30;7.53;;;;;;;19.67;100.00;100162.38;4894929;29;20025;-70
2023/05/28 08:17:21;;;;;;;10.38;7.60;;;;;;;19.80;100.00;100163.16;4895122;29;20025;-71
2023/05/28 08:19:46;;;;;;;9.45;7.10;;;;;;;19.47;100.00;100083.94;4895193;29;20060;-70
2023/05/28 08:22:11;;;;;;;10.25;6.82;;;;;;;19.82;100.00;100164.91;4895373;29;20502;-71
2023/05/28 08:24:37;;;;;;;13.52;7.85;;;;;;;19.68;100.00;100148.41;4895423;29;20033;-70
2023/05/28 08:27:03;;;;;;;12.02;7.45;;;;;;;19.67;100.00;100137.03;4894555;29;20067;-71
2023/05/28 08:29:28;;;;;;;11.40;7.28;;;;;;;19.91;100.00;100153.53;4861518;29;20045;-71
2023/05/28 08:31:54;;;;;;;11.45;8.15;;;;;;;19.62;100.00;100094.31;4895350;29;20037;-69
2023/05/28 08:34:19;;;;;;;15.82;7.32;;;;;;;20.02;100.00;100149.06;4895088;29;20095;-70
2023/05/28 08:36:46;;;;;;;11.93;6.90;;;;;;;20.09;100.00;100144.69;4894407;29;20499;-72
2023/05/28 08:39:12;;;;;;;12.70;7.28;;;;;;;20.25;100.00;100148.06;4894892;29;20028;-71
2023/05/28 08:41:37;;;;;;;12.00;7.35;;;;;;;20.34;100.00;100142.72;4894996;29;20092;-71
2023/05/28 08:44:03;;;;;;;12.35;7.45;;;;;;;20.25;100.00;100128.81;4895030;29;20451;-71
2023/05/28 08:46:30;;;;;;;11.48;6.88;;;;;;;20.33;100.00;100138.34;4894726;29;20024;-71
2023/05/28 08:48:57;;;;;;;12.60;6.78;;;;;;;19.86;100.00;100071.47;4894669;29;20028;-71
2023/05/28 08:51:27;;;;;;;15.45;7.32;;;;;;;20.28;100.00;100134.03;4894485;29;20056;-71
2023/05/28 08:53:53;;;;;;;12.95;6.88;;;;;;;20.29;100.00;100122.69;4894673;29;20028;-70
2023/05/28 08:56:20;;;;;;;13.15;6.72;;;;;;;20.63;100.00;100145.97;4890790;29;20495;-72
2023/05/28 08:58:47;;;;;;;14.10;7.03;;;;;;;20.67;100.00;100142.41;4894557;29;20099;-70
2023/05/28 09:01:12;;;;;;;12.27;6.82;;;;;;;20.73;100.00;100158.13;4893432;29;20111;-72
2023/05/28 09:03:40;;;;;;;16.63;6.90;;;;;;;20.46;100.00;100093.66;4892581;29;20164;-71
2023/05/28 09:06:07;;;;;;;13.75;6.25;;;;;;;20.95;100.00;100126.44;4892441;29;20047;-73
2023/05/28 09:08:33;;;;;;;10.50;6.70;;;;;;;21.19;100.00;100143.63;4892657;29;20037;-74
2023/05/28 09:11:10;;;;;;;8.52;5.72;;;;;;;20.88;100.00;100096.75;4893489;29;20044;-71
2023/05/28 09:13:43;;;;;;;12.65;5.90;;;;;;;21.23;100.00;100152.34;4894502;29;20028;-72
2023/05/28 09:16:08;;;;;;;10.63;5.82;;;;;;;21.26;100.00;100144.41;4876035;29;20035;-71
2023/05/28 09:18:35;;;;;;;10.13;6.25;;;;;;;21.38;100.00;100157.41;4894333;29;20412;-76
2023/05/28 09:21:00;;;;;;;7.38;5.60;;;;;;;21.43;100.00;100152.09;4861457;29;20047;-72
2023/05/28 09:23:28;;;;;;;10.43;5.63;;;;;;;21.46;100.00;100159.94;4894769;29;20033;-71
2023/05/28 09:25:56;;;;;;;10.13;5.93;;;;;;;21.37;100.00;100167.94;4897875;29;20031;-74
2023/05/28 09:28:27;;;;;;;10.93;5.53;;;;;;;20.89;100.00;100102.88;4892227;29;20129;-71
2023/05/28 09:30:53;;;;;;;11.00;5.22;;;;;;;21.09;100.00;100139.41;4882072;29;20053;-73
2023/05/28 09:33:19;;;;;;;9.90;5.35;;;;;;;21.32;100.00;100149.59;4897833;29;20033;-71
2023/05/28 09:35:59;;;;;;;7.57;5.40;;;;;;;21.38;100.00;100139.00;4894319;29;20043;-73
2023/05/28 09:38:26;;;;;;;10.07;5.70;;;;;;;21.49;100.00;100157.25;4893291;29;20515;-73
2023/05/28 09:40:55;;;;;;;9.32;5.47;;;;;;;21.40;100.00;100154.78;4897829;29;20035;-71
2023/05/28 09:43:28;;;;;;;10.07;5.65;;;;;;;21.35;100.00;100154.81;4894889;29;20471;-73
2023/05/28 09:46:29;;;;;;;12.55;5.80;;;;;;;21.26;100.00;100147.94;4895670;29;20037;-74
2023/05/28 09:48:54;;;;;;;10.25;5.80;;;;;;;21.00;100.00;100135.13;4857690;29;20068;-70
2023/05/28 09:51:23;;;;;;;10.68;6.05;;;;;;;21.04;100.00;100133.34;4839260;29;20525;-73
2023/05/28 09:53:53;;;;;;;8.73;5.95;;;;;;;21.06;100.00;100147.28;4850025;29;20137;-72
2023/05/28 09:56:20;;;;;;;10.15;6.85;;;;;;;20.95;100.00;100140.41;4849488;29;20493;-72
2023/05/28 09:58:50;;;;;;;10.70;6.50;;;;;;;20.72;100.00;100110.94;4845737;29;20046;-79
2023/05/28 10:01:20;;;;;;;10.10;6.72;;;;;;;20.94;100.00;100120.31;4856705;29;20508;-76
2023/05/28 10:03:51;;;;;;;13.57;6.45;;;;;;;20.78;100.00;100059.25;4856196;29;20052;-72
2023/05/28 10:06:20;;;;;;;11.70;6.68;;;;;;;21.31;100.00;100098.84;4856163;29;20053;-72
2023/05/28 10:08:51;;;;;;;9.88;6.18;;;;;;;21.68;100.00;100113.25;4855537;29;20037;-74
2023/05/28 10:11:21;;;;;;;9.88;6.45;;;;;;;21.54;100.00;100089.78;4854913;29;20033;-75
2023/05/28 10:13:48;;;;;;;11.00;6.53;;;;;;;21.40;100.00;100061.09;4854751;29;20179;-73
2023/05/28 10:16:13;;;;;;;14.70;6.18;;;;;;;21.70;100.00;100100.97;4851282;29;20139;-73
2023/05/28 10:18:41;;;;;;;12.63;6.40;;;;;;;21.64;100.00;100108.94;4855781;29;20033;-73
2023/05/28 10:21:09;;;;;;;11.05;5.80;;;;;;;21.41;100.00;100099.59;4896458;29;20033;-72
2023/05/28 10:23:35;;;;;;;12.70;6.50;;;;;;;21.26;100.00;100102.41;4890073;29;20116;-74
2023/05/28 10:26:02;;;;;;;10.75;6.15;;;;;;;21.25;100.00;100103.31;4896294;29;20056;-76
2023/05/28 10:28:30;;;;;;;8.35;6.07;;;;;;;21.28;100.00;100093.66;4895954;29;20526;-73
2023/05/28 10:31:03;;;;;;;9.00;6.07;;;;;;;20.91;100.00;100014.50;4895382;29;20063;-73
2023/05/28 10:33:29;;;;;;;9.15;6.20;;;;;;;21.15;100.00;100053.56;4881276;29;20411;-72
2023/05/28 10:35:58;;;;;;;12.10;5.85;;;;;;;21.26;100.00;100078.78;4860421;29;20104;-72
2023/05/28 10:38:24;;;;;;;10.57;5.00;;;;;;;21.20;100.00;100078.88;4886685;29;20104;-71
2023/05/28 10:40:50;;;;;;;10.20;5.18;;;;;;;21.18;100.00;100078.91;4894952;29;20500;-72
2023/05/28 10:43:38;;;;;;;7.70;4.00;;;;;;;21.58;100.00;100078.41;4879756;29;20031;-73
2023/05/28 10:46:08;;;;;;;8.70;4.60;;;;;;;22.19;100.00;100085.31;4887798;29;20084;-75
2023/05/28 10:48:40;;;;;;;9.35;5.38;;;;;;;22.62;100.00;100081.94;4882234;29;20033;-71
2023/05/28 10:51:05;;;;;;;9.90;5.13;;;;;;;22.84;100.00;100063.09;4878092;29;20044;-74
2023/05/28 10:53:31;;;;;;;11.85;5.40;;;;;;;22.96;100.00;100083.88;4891262;29;20025;-71
2023/05/28 10:55:56;;;;;;;11.73;5.60;;;;;;;23.05;100.00;100075.81;4896859;29;20029;-74
2023/05/28 10:58:33;;;;;;;12.73;6.20;;;;;;;23.26;100.00;100073.66;4896988;29;20032;-70
2023/05/28 11:01:12;;;;;;;12.73;5.70;;;;;;;23.66;100.00;100069.25;4848561;29;20051;-73
2023/05/28 11:03:45;;;;;;;11.85;5.32;;;;;;;23.86;100.00;100069.63;4896957;29;20036;-71
2023/05/28 11:06:12;;;;;;;12.35;5.45;;;;;;;23.77;100.00;100075.13;4896789;29;20514;-72
2023/05/28 11:08:42;;;;;;;13.90;5.53;;;;;;;23.74;100.00;100077.84;4896526;29;20400;-76
2023/05/28 11:11:10;;;;;;;12.18;5.75;;;;;;;23.65;100.00;100071.03;4896278;29;20025;-74